Time;durP1;ratioP1;P1;durP2;ratioP2;P2;SDS_P1;SDS_P2;PMS_P1;PMS_P2;Temp;Humidity;BMP_temperature;BMP_pressure;BME280_temperature;BME280_humidity;BME280_pressure;Samples;Min_cycle;Max_cycle;Signal;HPM_P1;HPM_P2
2023/09/21 00:05:24;;;;;;;10.33;6.83;;;;;;;23.10;49.92;100596.75;31495148;28;20106;-82
2023/09/21 00:20:36;;;;;;;9.98;6.20;;;;;;;22.99;49.56;100586.34;31484278;28;20036;-82
2023/09/21 00:35:41;;;;;;;9.18;5.85;;;;;;;22.90;49.47;100585.78;31484178;28;20063;-81
2023/09/21 00:50:44;;;;;;;16.55;7.55;;;;;;;22.72;50.51;100589.63;31486928;28;20086;-84
2023/09/21 01:05:48;;;;;;;12.60;6.55;;;;;;;22.56;50.14;100588.22;31484742;28;20473;-82
2023/09/21 01:20:55;;;;;;;12.45;7.13;;;;;;;22.48;51.02;100598.19;31488048;28;20561;-82
2023/09/21 01:35:57;;;;;;;10.65;6.07;;;;;;;22.13;52.14;100605.91;31478515;28;20057;-82
2023/09/21 01:50:59;;;;;;;11.57;6.13;;;;;;;21.94;52.06;100600.63;31477060;28;20079;-82
2023/09/21 02:06:02;;;;;;;10.02;5.50;;;;;;;21.74;52.41;100598.63;31490281;28;20048;-82
2023/09/21 02:21:07;;;;;;;13.38;6.30;;;;;;;21.58;52.65;100607.44;31511453;28;20416;-82
2023/09/21 02:36:17;;;;;;;9.43;5.30;;;;;;;21.48;53.16;100599.78;31508994;28;20529;-82
2023/09/21 02:51:20;;;;;;;12.73;5.80;;;;;;;21.25;53.39;100602.25;31516863;28;20056;-82
2023/09/21 03:06:23;;;;;;;12.40;6.03;;;;;;;21.11;54.21;100609.25;31520751;28;20052;-82
2023/09/21 03:21:25;;;;;;;12.20;5.68;;;;;;;21.11;54.28;100605.75;31518711;28;20135;-83
2023/09/21 03:36:27;;;;;;;10.35;6.28;;;;;;;20.95;54.81;100617.28;31539098;28;20107;-83
2023/09/21 03:51:29;;;;;;;11.95;7.22;;;;;;;20.95;55.20;100614.53;31520351;28;20049;-83
2023/09/21 04:06:32;;;;;;;13.98;7.10;;;;;;;21.13;55.24;100628.13;31462767;28;20410;-83
2023/09/21 04:21:33;;;;;;;24.00;11.23;;;;;;;21.38;56.19;100635.81;31442589;28;20045;-83
2023/09/21 04:36:36;;;;;;;12.77;8.45;;;;;;;21.86;56.09;100621.63;31503121;28;20479;-83
2023/09/21 04:51:38;;;;;;;16.73;9.18;;;;;;;22.51;54.73;100619.34;31494350;28;20143;-83
2023/09/21 05:06:40;;;;;;;16.58;8.10;;;;;;;23.03;54.70;100614.56;31530571;28;20052;-82
2023/09/21 05:21:43;;;;;;;14.38;7.88;;;;;;;23.96;53.73;100631.50;31485922;28;20048;-80
2023/09/21 05:36:47;;;;;;;14.93;8.27;;;;;;;24.90;52.85;100643.31;31473844;28;20094;-81
2023/09/21 05:51:52;;;;;;;18.60;7.80;;;;;;;26.12;50.74;100634.75;31489766;28;20079;-80
2023/09/21 06:06:56;;;;;;;14.30;6.47;;;;;;;27.36;49.44;100632.59;31516732;28;20084;-81
2023/09/21 06:21:58;;;;;;;16.60;7.22;;;;;;;28.15;47.38;100644.34;31506793;28;20062;-83
2023/09/21 06:37:00;;;;;;;;;;;;;;;29.25;45.38;100655.66;31518996;28;20059;-84
2023/09/21 06:52:05;;;;;;;16.45;7.20;;;;;;;29.61;45.23;100658.81;31512645;28;19924;-83
2023/09/21 07:07:07;;;;;;;18.92;7.63;;;;;;;30.46;43.82;100643.31;31498420;28;20098;-84
2023/09/21 07:22:10;;;;;;;17.00;7.30;;;;;;;31.75;41.78;100651.28;31492431;28;20059;-84
2023/09/21 07:37:15;;;;;;;15.15;6.82;;;;;;;32.47;41.16;100651.19;31502222;28;20052;-81
2023/09/21 07:52:18;;;;;;;9.43;6.05;;;;;;;33.41;39.81;100636.06;31484100;28;20094;-80
2023/09/21 08:07:24;;;;;;;8.85;4.65;;;;;;;33.99;39.26;100628.59;31483774;28;20177;-77
2023/09/21 08:22:26;;;;;;;13.75;5.78;;;;;;;34.42;37.98;100635.13;31473254;28;20525;-79
2023/09/21 08:37:29;;;;;;;21.40;10.50;;;;;;;35.05;37.07;100637.66;31478327;28;20165;-81
2023/09/21 08:52:33;;;;;;;9.27;4.38;;;;;;;35.33;36.77;100617.47;31472508;28;20529;-77
2023/09/21 09:07:39;;;;;;;8.65;3.80;;;;;;;35.53;36.11;100619.13;31472968;28;20088;-79
2023/09/21 09:22:42;;;;;;;15.52;4.32;;;;;;;36.56;35.94;100614.59;31479082;28;20050;-76
2023/09/21 09:37:47;;;;;;;7.18;3.28;;;;;;;36.75;34.69;100611.84;31480409;28;20063;-87
2023/09/21 09:52:51;;;;;;;6.50;3.35;;;;;;;36.97;34.51;100598.66;31468273;28;20101;-80
2023/09/21 10:07:59;;;;;;;9.40;4.13;;;;;;;37.43;33.62;100592.91;31482075;28;20517;-81
2023/09/21 10:23:05;;;;;;;7.30;3.28;;;;;;;34.48;35.85;100593.38;31466293;28;20044;-79
2023/09/21 10:38:15;;;;;;;6.50;3.97;;;;;;;35.19;36.92;100576.78;31476453;28;20057;-78
2023/09/21 10:53:17;;;;;;;12.27;3.50;;;;;;;35.71;36.96;100559.81;31482870;28;20050;-77
2023/09/21 11:08:24;;;;;;;8.45;3.58;;;;;;;34.07;37.79;100544.03;31485477;28;20494;-78
2023/09/21 11:23:26;;;;;;;12.02;3.78;;;;;;;34.41;38.66;100543.44;31472025;28;20044;-80
2023/09/21 11:38:33;;;;;;;8.40;3.38;;;;;;;34.11;38.46;100531.03;31480778;28;20099;-76
2023/09/21 11:53:37;;;;;;;8.75;2.90;;;;;;;33.60;38.36;100530.75;31485558;28;20044;-77
2023/09/21 12:08:39;;;;;;;8.00;2.30;;;;;;;32.75;38.72;100521.78;31470238;28;20060;-78
2023/09/21 12:23:41;;;;;;;8.05;4.40;;;;;;;32.65;38.81;100526.44;31493466;28;20092;-79
2023/09/21 12:38:44;;;;;;;8.02;2.88;;;;;;;32.39;39.35;100524.75;31500870;28;20052;-84
2023/09/21 12:53:46;;;;;;;5.25;2.15;;;;;;;31.69;39.62;100524.41;31473297;28;20083;-82
2023/09/21 13:08:48;;;;;;;4.38;2.45;;;;;;;31.26;39.79;100511.84;31470995;28;20102;-81
2023/09/21 13:23:53;;;;;;;9.50;2.83;;;;;;;30.92;40.52;100505.66;31479561;28;20482;-79
2023/09/21 13:38:58;;;;;;;4.32;2.63;;;;;;;30.83;40.18;100501.31;31464611;28;20053;-80
2023/09/21 13:54:02;;;;;;;3.17;2.28;;;;;;;30.56;40.68;100497.94;31459539;28;20057;-79
2023/09/21 14:09:04;;;;;;;5.40;2.35;;;;;;;30.65;40.24;100497.47;31464829;28;20048;-77
2023/09/21 14:24:07;;;;;;;4.22;2.25;;;;;;;30.62;39.56;100506.22;31490148;28;20048;-78
2023/09/21 14:39:11;;;;;;;9.25;3.30;;;;;;;30.52;39.35;100505.91;31502558;28;20480;-78
2023/09/21 14:54:13;;;;;;;4.70;2.55;;;;;;;30.25;39.11;100501.75;31503086;28;20464;-76
2023/09/21 15:09:15;;;;;;;6.25;2.65;;;;;;;29.81;38.96;100521.81;31489824;28;20048;-77
2023/09/21 15:24:19;;;;;;;;;;;;;;;29.45;38.87;100529.97;31478948;28;20052;-78
2023/09/21 15:39:21;;;;;;;8.05;3.30;;;;;;;29.03;39.63;100531.06;31493698;28;19929;-77
2023/09/21 15:54:28;;;;;;;8.30;4.18;;;;;;;28.75;39.49;100537.09;31485461;28;20075;-79
2023/09/21 16:09:30;;;;;;;12.00;4.15;;;;;;;28.51;39.38;100547.16;31481914;28;20426;-78
2023/09/21 16:24:33;;;;;;;13.07;5.33;;;;;;;28.03;39.89;100556.50;31481999;28;20055;-77
2023/09/21 16:39:36;;;;;;;10.00;4.40;;;;;;;27.72;40.09;100546.75;31490031;28;20490;-77
2023/09/21 16:54:38;;;;;;;9.88;5.18;;;;;;;27.45;40.91;100572.94;31477456;28;20056;-84
2023/09/21 17:09:41;;;;;;;12.13;5.07;;;;;;;27.17;41.91;100595.53;31491349;28;20045;-76
2023/09/21 17:24:43;;;;;;;47.10;10.47;;;;;;;26.86;43.50;100609.97;31477214;28;20102;-82
2023/09/21 17:39:45;;;;;;;8.73;5.40;;;;;;;26.55;44.21;100622.38;31479255;28;20052;-82
2023/09/21 17:54:50;;;;;;;11.23;5.43;;;;;;;26.23;46.44;100624.81;31489969;28;20057;-82
2023/09/21 18:09:52;;;;;;;8.13;4.32;;;;;;;26.12;46.71;100637.53;31506671;28;20053;-81
2023/09/21 18:24:54;;;;;;;5.28;4.05;;;;;;;25.83;48.12;100643.72;31468060;28;20047;-81
2023/09/21 18:39:56;;;;;;;10.77;4.60;;;;;;;25.71;48.97;100631.13;31465979;28;20052;-81
2023/09/21 18:54:58;;;;;;;10.02;4.40;;;;;;;25.65;49.77;100638.72;31453003;28;20052;-83
2023/09/21 19:10:01;;;;;;;10.23;5.17;;;;;;;25.44;50.65;100630.66;31490523;28;20106;-82
2023/09/21 19:25:03;;;;;;;7.32;4.55;;;;;;;25.19;51.47;100637.28;31473653;28;20072;-83
2023/09/21 19:40:06;;;;;;;12.90;5.67;;;;;;;24.90;52.78;100630.19;31474932;28;20049;-81
2023/09/21 19:55:09;;;;;;;11.23;6.20;;;;;;;24.77;53.35;100644.59;31513157;28;20051;-85
2023/09/21 20:10:11;;;;;;;12.97;5.53;;;;;;;24.55;54.82;100636.22;31472884;28;20127;-79
2023/09/21 20:25:13;;;;;;;9.70;5.90;;;;;;;24.46;55.22;100622.59;31493037;28;20059;-86
2023/09/21 20:40:15;;;;;;;10.05;6.15;;;;;;;24.26;56.92;100631.13;31512602;28;20048;-86
2023/09/21 20:55:18;;;;;;;12.50;7.53;;;;;;;24.15;57.86;100631.78;31506774;28;20045;-86
2023/09/21 21:10:21;;;;;;;12.43;7.43;;;;;;;24.01;60.30;100618.91;31498406;28;20119;-86
2023/09/21 21:25:23;;;;;;;12.40;6.28;;;;;;;24.08;60.21;100616.41;31510737;28;20567;-84
2023/09/21 21:40:25;;;;;;;30.13;10.63;;;;;;;24.02;61.34;100615.63;31499872;28;20071;-81
2023/09/21 21:55:27;;;;;;;11.18;6.82;;;;;;;23.88;62.47;100607.50;31515906;28;20418;-83
2023/09/21 22:10:29;;;;;;;19.60;12.85;;;;;;;23.84;63.06;100585.59;31503145;28;20049;-83
2023/09/21 22:25:32;;;;;;;8.02;5.68;;;;;;;23.82;63.76;100588.09;31499059;28;20052;-83
2023/09/21 22:40:37;;;;;;;10.32;6.15;;;;;;;23.80;63.87;100585.06;31521547;28;20142;-82
2023/09/21 22:55:39;;;;;;;12.93;6.43;;;;;;;23.76;64.32;100584.53;31511189;28;20053;-82
2023/09/21 23:10:44;;;;;;;12.32;6.93;;;;;;;23.66;65.95;100592.28;31497894;28;20053;-82
2023/09/21 23:25:48;;;;;;;51.75;27.50;;;;;;;23.57;66.70;100573.13;31507261;28;20045;-82
2023/09/21 23:40:50;;;;;;;10.02;6.20;;;;;;;23.47;65.85;100575.31;31527170;28;20059;-82
2023/09/21 23:55:52;;;;;;;9.10;6.22;;;;;;;23.17;66.26;100576.88;31506054;28;20426;-82
